Flight Briefing for CPX448

Departure Arrival
Minneapolis-St Paul International Airport (KMSP)
Click to view FAA NOTAMS
Salt Lake City International Airport (KSLC)
Click to view FAA NOTAMS
Departure Time Arrival Time
N/A N/A
Aircraft Distance
B757-200SF 860nm
Departure METAR Arrival METAR
KMSP 260853Z 00000KT 10SM CLR M03/M07 A3038 RMK AO2 SLP297 T10281072 58001 KSLC 260854Z 14018KT 10SM BKN200 10/M02 A3009 RMK AO2 SLP165 T01001017 58012
Suggested Route
LEINY6 LEINY RAP DDY NORDK6


View recent IFR Routes data
Notes



Charts and Procedures

Charts for KMSP
No chart available
Charts for KSLC
No chart available

Windy.com Weather Map